Long Hua — VRFR5 — position and weather

sailwx.info

Track history (hours):
 
Tides and Currents Weather Stations Pressure Air Temp Water Temp Dewpoint Dewpoint Depression Visibility Wind Speed Wind Dir Waves Ship Positions

Long Hua

Last reported at 2014-May-12 16:31 UTC. Time now 2014-Jul-29 20:53 UTC.
Position N 35°57' W 005°09'.
Warning: this ship's position is months out of date.

Length 180 m; draft 8.7 m.

MMSI: 477622800.

Date/timePositionNaut miles runAvg speedWind from/ knotsBaromVisibWave heightAir tempDewpointWater temp
2014-May-12 16:31N 35°57' W 005°09'1313.6
2014-May-12 15:33N 35°58' W 005°25'9311.6
2014-May-12 07:33N 36°08' W 007°19'2512.6
2014-May-12 05:33N 36°15' W 007°49'1212.5
2014-May-12 04:33N 36°18' W 008°04'1312.6
2014-May-12 03:33N 36°21' W 008°19'1212.4
2014-May-12 02:33N 36°25' W 008°34'112.3
2014-May-12 02:26N 36°25' W 008°36'1112.2
2014-May-12 01:33N 36°28' W 008°49'1212.3
2014-May-12 00:33N 36°31' W 009°03'1212.1
2014-May-11 23:33N 36°35' W 009°18'1212.2
2014-May-11 22:33N 36°43' W 009°28'1211.7
2014-May-11 21:33N 36°54' W 009°35'1313.2
2014-May-11 20:33N 37°07' W 009°39'1313.3
2014-May-11 19:33N 37°20' W 009°42'1312.9
2014-May-11 18:33N 37°32' W 009°46'1313.0
2014-May-11 17:33N 37°45' W 009°49'1312.9
2014-May-11 16:33N 37°58' W 009°53'1313.1
2014-May-11 15:33N 38°10' W 009°57'1313.1
2014-May-11 14:33N 38°23' W 010°02'1313.0
2014-May-11 13:33N 38°36' W 010°05'1312.9
2014-May-11 12:32N 38°49' W 010°06'  
2014-May-08 09:33N 50°16' W 001°26'1211.8
2014-May-08 08:33N 50°19' W 001°08'1212.1
2014-May-08 07:33N 50°22' W 000°49'1311.5
2014-May-08 06:22N 50°25' W 000°29'2310.5
2014-May-08 04:12N 50°31' E 000°06'7 9.2
2014-May-08 03:27N 50°33' E 000°16'8 9.3
2014-May-08 02:33N 50°35' E 000°29'9 9.4
2014-May-08 01:33N 50°38' E 000°43'10 9.6
2014-May-08 00:33N 50°44' E 000°55'1110.3
2014-May-07 23:32N 50°50' E 001°09'1310.5
2014-May-07 22:18N 50°59' E 001°24'810.1
2014-May-07 21:33N 51°04' E 001°32'8 7.7
2014-May-07 20:33N 51°05' E 001°45'9 8.7
2014-May-07 19:31N 51°03' E 001°59'9 8.9
2014-May-07 18:33N 51°04' E 002°12'5 5.2
2014-May-07 17:33N 51°03' E 002°20'2 2.2
2014-May-07 16:31N 51°03' E 002°17'0 0.3
2014-May-07 15:31N 51°03' E 002°17'0 0.0
2014-May-07 14:23N 51°03' E 002°17'0 0.0
2014-May-07 13:29N 51°03' E 002°17'0 0.0
2014-May-07 12:23N 51°03' E 002°17'0 0.0
2014-May-07 11:29N 51°03' E 002°17'0 0.0
2014-May-07 10:32N 51°03' E 002°17'0 0.0
2014-May-07 09:26N 51°03' E 002°17'0 0.0
2014-May-07 08:23N 51°03' E 002°17'0 0.0
2014-May-07 04:32N 51°03' E 002°17'0 0.0
2014-May-07 03:29N 51°03' E 002°17'0 0.0
2014-May-07 02:29N 51°03' E 002°17'0 0.0
2014-May-07 01:32N 51°03' E 002°17'0 0.0
2014-May-07 00:32N 51°03' E 002°17'0 0.0
2014-May-06 23:26N 51°03' E 002°17'0 0.0
2014-May-06 22:32N 51°03' E 002°17'0 0.0
2014-May-06 20:26N 51°03' E 002°17'0 0.0
2014-May-06 19:17N 51°03' E 002°17'0 0.0
2014-May-06 18:29N 51°03' E 002°17'0 0.0
2014-May-06 13:32N 51°03' E 002°17'0 0.0
2014-May-06 12:32N 51°03' E 002°17'0 0.0
2014-May-06 11:26N 51°03' E 002°17'0 0.0
2014-May-06 10:32N 51°03' E 002°17'0 0.0
2014-May-06 09:32N 51°03' E 002°17'0 0.0
2014-May-06 08:23N 51°03' E 002°17'0 0.0
2014-May-06 07:29N 51°03' E 002°17'0 0.0
2014-May-06 06:26N 51°03' E 002°17'0 0.0
2014-May-06 01:20N 51°03' E 002°17'2 2.4
2014-May-06 00:20N 51°03' E 002°20'1 1.1
2014-May-05 23:29N 51°04' E 002°21'1110.3
2014-May-05 22:26N 51°03' E 002°04'9 9.6
2014-May-05 21:32N 51°02' E 001°50'7 7.1
2014-May-05 20:34N 51°02' E 001°39'1110.9
2014-May-05 19:34N 50°54' E 001°27'1313.3
2014-May-05 18:33N 50°41' E 001°20'1812.7
2014-May-05 17:06N 50°30' E 000°57'712.8
2014-May-05 16:33N 50°28' E 000°47'1612.9
2014-May-05 15:21N 50°23' E 000°23'2712.6
2014-May-05 13:11N 50°16' W 000°18'914.2
2014-May-05 12:33N 50°14' W 000°32'1514.7
2014-May-05 11:33N 50°11' W 000°54'1414.5
2014-May-05 10:33N 50°07' W 001°16'1713.7
2014-May-05 09:21N 50°02' W 001°40'1113.0
2014-May-05 08:32N 49°59' W 001°56'1311.7
2014-May-05 07:25N 49°56' W 002°16'1210.6
2014-May-05 06:19N 49°53' W 002°34'2011.2
2014-May-05 04:30N 49°47' W 003°03'  
Track history (hours):
 
Tides and Currents Weather Stations Pressure Air Temp Water Temp Dewpoint Dewpoint Depression Visibility Wind Speed Wind Dir Waves Ship Positions

Long Hua

Last reported at 2014-May-12 16:31 UTC. Time now 2014-Jul-29 20:53 UTC.
Position N 35°57' W 005°09'.
Warning: this ship's position is months out of date.

Length 180 m; draft 8.7 m.

MMSI: 477622800.

Date/timePositionNaut miles runAvg speedWind from/ knotsBaromVisibWave heightAir tempDewpointWater temp
2014-May-12 16:31N 35°57' W 005°09'1313.6
2014-May-12 15:33N 35°58' W 005°25'9311.6
2014-May-12 07:33N 36°08' W 007°19'2512.6
2014-May-12 05:33N 36°15' W 007°49'1212.5
2014-May-12 04:33N 36°18' W 008°04'1312.6
2014-May-12 03:33N 36°21' W 008°19'1212.4
2014-May-12 02:33N 36°25' W 008°34'112.3
2014-May-12 02:26N 36°25' W 008°36'1112.2
2014-May-12 01:33N 36°28' W 008°49'1212.3
2014-May-12 00:33N 36°31' W 009°03'1212.1
2014-May-11 23:33N 36°35' W 009°18'1212.2
2014-May-11 22:33N 36°43' W 009°28'1211.7
2014-May-11 21:33N 36°54' W 009°35'1313.2
2014-May-11 20:33N 37°07' W 009°39'1313.3
2014-May-11 19:33N 37°20' W 009°42'1312.9
2014-May-11 18:33N 37°32' W 009°46'1313.0
2014-May-11 17:33N 37°45' W 009°49'1312.9
2014-May-11 16:33N 37°58' W 009°53'1313.1
2014-May-11 15:33N 38°10' W 009°57'1313.1
2014-May-11 14:33N 38°23' W 010°02'1313.0
2014-May-11 13:33N 38°36' W 010°05'1312.9
2014-May-11 12:32N 38°49' W 010°06'  
2014-May-08 09:33N 50°16' W 001°26'1211.8
2014-May-08 08:33N 50°19' W 001°08'1212.1
2014-May-08 07:33N 50°22' W 000°49'1311.5
2014-May-08 06:22N 50°25' W 000°29'2310.5
2014-May-08 04:12N 50°31' E 000°06'7 9.2
2014-May-08 03:27N 50°33' E 000°16'8 9.3
2014-May-08 02:33N 50°35' E 000°29'9 9.4
2014-May-08 01:33N 50°38' E 000°43'10 9.6
2014-May-08 00:33N 50°44' E 000°55'1110.3
2014-May-07 23:32N 50°50' E 001°09'1310.5
2014-May-07 22:18N 50°59' E 001°24'810.1
2014-May-07 21:33N 51°04' E 001°32'8 7.7
2014-May-07 20:33N 51°05' E 001°45'9 8.7
2014-May-07 19:31N 51°03' E 001°59'9 8.9
2014-May-07 18:33N 51°04' E 002°12'5 5.2
2014-May-07 17:33N 51°03' E 002°20'2 2.2
2014-May-07 16:31N 51°03' E 002°17'0 0.3
2014-May-07 15:31N 51°03' E 002°17'0 0.0
2014-May-07 14:23N 51°03' E 002°17'0 0.0
2014-May-07 13:29N 51°03' E 002°17'0 0.0
2014-May-07 12:23N 51°03' E 002°17'0 0.0
2014-May-07 11:29N 51°03' E 002°17'0 0.0
2014-May-07 10:32N 51°03' E 002°17'0 0.0
2014-May-07 09:26N 51°03' E 002°17'0 0.0
2014-May-07 08:23N 51°03' E 002°17'0 0.0
2014-May-07 04:32N 51°03' E 002°17'0 0.0
2014-May-07 03:29N 51°03' E 002°17'0 0.0
2014-May-07 02:29N 51°03' E 002°17'0 0.0
2014-May-07 01:32N 51°03' E 002°17'0 0.0
2014-May-07 00:32N 51°03' E 002°17'0 0.0
2014-May-06 23:26N 51°03' E 002°17'0 0.0
2014-May-06 22:32N 51°03' E 002°17'0 0.0
2014-May-06 20:26N 51°03' E 002°17'0 0.0
2014-May-06 19:17N 51°03' E 002°17'0 0.0
2014-May-06 18:29N 51°03' E 002°17'0 0.0
2014-May-06 13:32N 51°03' E 002°17'0 0.0
2014-May-06 12:32N 51°03' E 002°17'0 0.0
2014-May-06 11:26N 51°03' E 002°17'0 0.0
2014-May-06 10:32N 51°03' E 002°17'0 0.0
2014-May-06 09:32N 51°03' E 002°17'0 0.0
2014-May-06 08:23N 51°03' E 002°17'0 0.0
2014-May-06 07:29N 51°03' E 002°17'0 0.0
2014-May-06 06:26N 51°03' E 002°17'0 0.0
2014-May-06 01:20N 51°03' E 002°17'2 2.4
2014-May-06 00:20N 51°03' E 002°20'1 1.1
2014-May-05 23:29N 51°04' E 002°21'1110.3
2014-May-05 22:26N 51°03' E 002°04'9 9.6
2014-May-05 21:32N 51°02' E 001°50'7 7.1
2014-May-05 20:34N 51°02' E 001°39'1110.9
2014-May-05 19:34N 50°54' E 001°27'1313.3
2014-May-05 18:33N 50°41' E 001°20'1812.7
2014-May-05 17:06N 50°30' E 000°57'712.8
2014-May-05 16:33N 50°28' E 000°47'1612.9
2014-May-05 15:21N 50°23' E 000°23'2712.6
2014-May-05 13:11N 50°16' W 000°18'914.2
2014-May-05 12:33N 50°14' W 000°32'1514.7
2014-May-05 11:33N 50°11' W 000°54'1414.5
2014-May-05 10:33N 50°07' W 001°16'1713.7
2014-May-05 09:21N 50°02' W 001°40'1113.0
2014-May-05 08:32N 49°59' W 001°56'1311.7
2014-May-05 07:25N 49°56' W 002°16'1210.6
2014-May-05 06:19N 49°53' W 002°34'2011.2
2014-May-05 04:30N 49°47' W 003°03'  

Dump ship's entire track history